Time;durP1;ratioP1;P1;durP2;ratioP2;P2;SDS_P1;SDS_P2;PMS_P1;PMS_P2;Temp;Humidity;BMP_temperature;BMP_pressure;BME280_temperature;BME280_humidity;BME280_pressure;Samples;Min_cycle;Max_cycle;Signal;HPM_P1;HPM_P2
2024/01/04 00:01:43;;;;;;;1.30;0.80;;;22.60;66.00;;;;;;5056348;28;20986;-88
2024/01/04 00:04:10;;;;;;;1.20;0.70;;;22.60;66.00;;;;;;5060879;28;20533;-88
2024/01/04 00:06:43;;;;;;;1.20;0.80;;;22.60;66.10;;;;;;5068118;28;20457;-88
2024/01/04 00:09:10;;;;;;;1.40;0.90;;;22.60;66.10;;;;;;5068583;28;20515;-85
2024/01/04 00:11:37;;;;;;;1.17;0.77;;;22.60;66.00;;;;;;5062792;28;20528;-88
2024/01/04 00:14:06;;;;;;;3.77;0.97;;;22.60;66.10;;;;;;5056981;28;20477;-88
2024/01/04 00:16:35;;;;;;;1.20;0.70;;;22.60;66.10;;;;;;5056397;28;20459;-88
2024/01/04 00:19:02;;;;;;;1.83;0.73;;;22.60;66.10;;;;;;5056179;28;20488;-88
2024/01/04 00:21:29;;;;;;;2.60;0.70;;;22.60;66.10;;;;;;5056372;28;20448;-88
2024/01/04 00:23:57;;;;;;;1.30;0.77;;;22.60;66.10;;;;;;5056328;28;20927;-88
2024/01/04 00:26:24;;;;;;;1.40;0.80;;;22.50;66.00;;;;;;5055667;28;20441;-94
2024/01/04 00:28:51;;;;;;;1.30;0.80;;;22.50;66.00;;;;;;5055912;28;20584;-89
2024/01/04 00:31:18;;;;;;;1.20;0.70;;;22.50;66.00;;;;;;5056239;28;20882;-89
2024/01/04 00:33:46;;;;;;;1.20;0.70;;;22.50;66.00;;;;;;5055836;28;20540;-89
2024/01/04 00:36:13;;;;;;;1.60;0.90;;;22.50;66.90;;;;;;5055924;28;20525;-90
2024/01/04 00:38:40;;;;;;;1.20;0.80;;;22.50;66.10;;;;;;5055831;28;20549;-92
2024/01/04 00:41:07;;;;;;;1.20;0.80;;;22.50;66.00;;;;;;5055703;28;20532;-89
2024/01/04 00:43:34;;;;;;;1.10;0.70;;;22.50;66.00;;;;;;5055600;28;21024;-89
2024/01/04 00:46:01;;;;;;;1.20;0.80;;;22.50;66.10;;;;;;5055335;28;20937;-88
2024/01/04 00:48:28;;;;;;;1.20;0.70;;;22.50;66.10;;;;;;5055159;28;20580;-89
2024/01/04 00:50:56;;;;;;;1.00;0.60;;;22.50;66.10;;;;;;5055862;28;20451;-88
2024/01/04 00:53:23;;;;;;;1.10;0.70;;;22.50;66.10;;;;;;5055218;28;20537;-90
2024/01/04 00:55:49;;;;;;;1.30;0.97;;;22.50;66.10;;;;;;5055268;28;20532;-88
2024/01/04 00:58:16;;;;;;;1.30;0.90;;;22.50;66.10;;;;;;5055169;28;20536;-89
2024/01/04 01:00:43;;;;;;;1.30;0.70;;;22.40;66.00;;;;;;5055464;28;20440;-88
2024/01/04 01:03:10;;;;;;;1.50;0.80;;;22.40;66.00;;;;;;5055176;28;20441;-88
2024/01/04 01:05:37;;;;;;;1.10;0.77;;;22.40;66.00;;;;;;5054852;28;20430;-89
2024/01/04 01:08:06;;;;;;;1.10;0.80;;;22.40;66.10;;;;;;5054833;28;20537;-89
2024/01/04 01:10:34;;;;;;;1.10;0.70;;;22.40;66.10;;;;;;5054725;28;20568;-89
2024/01/04 01:13:01;;;;;;;1.20;0.70;;;22.40;66.10;;;;;;5054712;28;20444;-89
2024/01/04 01:15:28;;;;;;;1.30;0.70;;;22.40;66.10;;;;;;5055013;28;20456;-88
2024/01/04 01:17:55;;;;;;;1.67;1.10;;;22.40;66.20;;;;;;5054796;28;20449;-88
2024/01/04 01:20:22;;;;;;;1.10;0.60;;;22.40;66.20;;;;;;5054957;28;20449;-88
2024/01/04 01:22:49;;;;;;;1.20;0.90;;;22.40;66.20;;;;;;5055385;28;20936;-88
2024/01/04 01:25:17;;;;;;;1.10;0.73;;;22.40;66.20;;;;;;5055056;28;20499;-90
2024/01/04 01:27:44;;;;;;;1.10;0.60;;;22.40;66.10;;;;;;5054663;28;20437;-90
2024/01/04 01:30:11;;;;;;;1.90;0.90;;;22.40;66.10;;;;;;5054529;28;20568;-89
2024/01/04 01:32:38;;;;;;;1.10;0.70;;;22.40;66.20;;;;;;5055960;28;20449;-89
2024/01/04 01:35:05;;;;;;;1.40;0.80;;;22.40;66.30;;;;;;5074329;28;20536;-90
2024/01/04 01:37:32;;;;;;;1.20;0.80;;;22.40;66.20;;;;;;5074257;28;20535;-88
2024/01/04 01:39:59;;;;;;;1.43;0.90;;;22.40;67.10;;;;;;5074215;28;20543;-93
2024/01/04 01:42:27;;;;;;;1.10;0.70;;;22.40;66.20;;;;;;5074490;28;20808;-88
2024/01/04 01:44:54;;;;;;;1.30;0.80;;;22.40;66.20;;;;;;5074520;28;20551;-89
2024/01/04 01:47:22;;;;;;;1.10;0.77;;;22.40;66.20;;;;;;5073837;28;20444;-88
2024/01/04 01:49:49;;;;;;;1.10;0.80;;;22.40;66.20;;;;;;5073990;28;20507;-93
2024/01/04 01:52:16;;;;;;;1.20;0.80;;;22.40;66.30;;;;;;5074244;28;20519;-89
2024/01/04 01:54:43;;;;;;;1.10;0.60;;;22.30;66.20;;;;;;5074462;28;20527;-88
2024/01/04 01:57:10;;;;;;;1.20;0.83;;;22.30;66.20;;;;;;5074394;28;20441;-89
2024/01/04 01:59:38;;;;;;;1.30;0.90;;;22.30;66.20;;;;;;5074483;28;20444;-88
2024/01/04 02:02:05;;;;;;;1.03;0.60;;;22.30;66.20;;;;;;5074027;28;20548;-89
2024/01/04 02:04:32;;;;;;;1.10;0.73;;;22.30;66.20;;;;;;5074264;28;20794;-89
2024/01/04 02:07:00;;;;;;;1.10;0.70;;;22.30;66.20;;;;;;5074112;28;20766;-89
2024/01/04 02:09:27;;;;;;;1.53;0.77;;;22.40;66.30;;;;;;5074159;28;20504;-89
2024/01/04 02:12:04;;;;;;;1.20;0.70;;;22.30;66.20;;;;;;5074395;28;20433;-89
2024/01/04 02:14:31;;;;;;;1.30;0.87;;;22.40;66.20;;;;;;5074021;28;20519;-89
2024/01/04 02:16:59;;;;;;;1.50;0.80;;;22.30;66.20;;;;;;5073860;28;20472;-88
2024/01/04 02:19:28;;;;;;;1.20;0.77;;;22.40;66.20;;;;;;5073829;28;20439;-89
2024/01/04 02:21:54;;;;;;;1.30;0.80;;;22.40;66.20;;;;;;5073700;28;20875;-89
2024/01/04 02:24:23;;;;;;;3.20;1.10;;;22.40;66.20;;;;;;5073981;28;20449;-89
2024/01/04 02:26:49;;;;;;;1.20;0.70;;;22.40;66.20;;;;;;5073722;28;20527;-89
2024/01/04 02:29:16;;;;;;;1.20;0.70;;;22.30;66.10;;;;;;5073984;28;20484;-95
2024/01/04 02:31:45;;;;;;;1.70;1.10;;;22.30;66.10;;;;;;5073702;28;20536;-89
2024/01/04 02:34:11;;;;;;;1.10;0.80;;;22.40;66.10;;;;;;5073685;28;20467;-89
2024/01/04 02:36:38;;;;;;;1.23;0.80;;;22.30;66.00;;;;;;5073789;28;20451;-89
2024/01/04 02:39:05;;;;;;;1.10;0.70;;;22.40;66.10;;;;;;5074395;28;21045;-89
2024/01/04 02:41:33;;;;;;;1.63;0.90;;;22.40;66.10;;;;;;5073575;28;20536;-89
2024/01/04 02:44:00;;;;;;;1.47;1.00;;;22.40;66.10;;;;;;5073793;28;20821;-89
2024/01/04 02:46:27;;;;;;;1.10;0.67;;;22.40;66.10;;;;;;5074714;28;20450;-89
2024/01/04 02:48:54;;;;;;;1.67;0.70;;;22.40;66.10;;;;;;5082051;28;20559;-86
2024/01/04 02:51:21;;;;;;;1.10;0.80;;;22.40;66.10;;;;;;5093716;28;20448;-88
2024/01/04 02:53:48;;;;;;;1.20;0.70;;;22.40;66.10;;;;;;5093424;28;20441;-89
2024/01/04 02:56:15;;;;;;;1.67;0.80;;;22.40;66.10;;;;;;5073464;28;20965;-88
2024/01/04 02:58:45;;;;;;;1.40;0.80;;;22.40;66.00;;;;;;5074479;28;20472;-88
2024/01/04 03:01:11;;;;;;;1.20;0.80;;;22.40;66.00;;;;;;5077169;28;20448;-89
2024/01/04 03:03:38;;;;;;;1.17;0.80;;;22.40;66.00;;;;;;5077044;28;20448;-88
2024/01/04 03:06:05;;;;;;;1.90;0.80;;;22.40;66.00;;;;;;5077087;28;20530;-88
2024/01/04 03:08:32;;;;;;;1.10;0.70;;;22.40;66.00;;;;;;5077091;28;20558;-89
2024/01/04 03:10:59;;;;;;;1.23;0.80;;;22.30;65.90;;;;;;5077324;28;20498;-88
2024/01/04 03:13:26;;;;;;;2.03;0.70;;;22.40;66.00;;;;;;5077094;28;20535;-91
2024/01/04 03:15:54;;;;;;;1.20;0.83;;;22.40;66.00;;;;;;5077052;28;20534;-88
2024/01/04 03:18:21;;;;;;;1.40;0.90;;;22.40;66.00;;;;;;5077003;28;20475;-89
2024/01/04 03:20:48;;;;;;;1.30;0.73;;;22.40;66.00;;;;;;5077073;28;20909;-89
2024/01/04 03:23:15;;;;;;;1.20;0.70;;;22.40;65.90;;;;;;5077236;28;20447;-88
2024/01/04 03:25:42;;;;;;;1.10;0.70;;;22.40;65.90;;;;;;5077254;28;20532;-89
2024/01/04 03:28:09;;;;;;;1.17;0.70;;;22.40;65.90;;;;;;5076778;28;21009;-89
2024/01/04 03:30:36;;;;;;;1.20;0.77;;;22.40;65.90;;;;;;5077225;28;20575;-96
2024/01/04 03:33:04;;;;;;;1.13;0.70;;;22.40;65.90;;;;;;5076807;28;20468;-89
2024/01/04 03:35:31;;;;;;;1.30;0.83;;;22.30;65.80;;;;;;5077549;28;20440;-96
2024/01/04 03:37:58;;;;;;;1.30;0.70;;;22.30;65.70;;;;;;5077305;28;20502;-96
2024/01/04 03:40:24;;;;;;;1.20;0.80;;;22.30;65.80;;;;;;5076754;28;20535;-95
2024/01/04 03:42:51;;;;;;;1.20;0.70;;;22.30;65.80;;;;;;5076741;28;20531;-95
2024/01/04 03:45:18;;;;;;;1.27;0.80;;;22.40;65.90;;;;;;5076772;28;20551;-88
2024/01/04 03:47:45;;;;;;;1.30;0.77;;;22.40;65.90;;;;;;5076713;28;20444;-88
2024/01/04 03:50:13;;;;;;;1.70;0.80;;;22.40;65.90;;;;;;5076272;28;20490;-88
2024/01/04 03:52:40;;;;;;;1.20;0.70;;;22.40;65.90;;;;;;5076640;28;20805;-88
2024/01/04 03:55:08;;;;;;;1.10;0.70;;;22.40;65.80;;;;;;5077110;28;20448;-90
2024/01/04 03:57:35;;;;;;;1.10;0.70;;;22.40;65.80;;;;;;5076688;28;20531;-89
2024/01/04 04:00:03;;;;;;;1.97;0.70;;;22.30;65.70;;;;;;5076581;28;20536;-89
2024/01/04 04:02:30;;;;;;;1.60;0.70;;;22.40;65.80;;;;;;5077218;28;20433;-94
2024/01/04 04:04:57;;;;;;;1.10;0.70;;;22.30;65.70;;;;;;5076698;28;20539;-87
2024/01/04 04:07:25;;;;;;;1.00;0.60;;;22.30;65.70;;;;;;5076368;28;20459;-93
2024/01/04 04:09:52;;;;;;;1.30;0.80;;;22.30;65.70;;;;;;5075343;28;20492;-88
2024/01/04 04:12:19;;;;;;;1.50;0.93;;;22.40;65.80;;;;;;5065487;28;20532;-88
2024/01/04 04:14:45;;;;;;;1.30;0.70;;;22.40;65.80;;;;;;5062034;28;20868;-96
2024/01/04 04:17:14;;;;;;;1.20;0.83;;;22.40;65.80;;;;;;5057118;28;20437;-94
2024/01/04 04:19:40;;;;;;;1.20;0.80;;;22.40;65.70;;;;;;5057161;28;20441;-96
2024/01/04 04:22:07;;;;;;;1.10;0.70;;;22.40;65.80;;;;;;5056588;28;20528;-95
2024/01/04 04:24:35;;;;;;;1.10;0.80;;;22.30;65.60;;;;;;5056355;28;20443;-91
2024/01/04 04:27:02;;;;;;;1.10;0.67;;;22.30;65.70;;;;;;5058328;28;20419;-89
2024/01/04 04:29:29;;;;;;;1.30;0.70;;;22.30;65.70;;;;;;5060198;28;20513;-89
2024/01/04 04:31:56;;;;;;;1.10;0.70;;;22.30;65.70;;;;;;5059040;28;20924;-89
2024/01/04 04:34:23;;;;;;;1.10;0.73;;;22.30;65.70;;;;;;5059371;28;20437;-89
2024/01/04 04:36:49;;;;;;;1.20;0.60;;;22.40;65.80;;;;;;5057552;28;20437;-88
2024/01/04 04:39:16;;;;;;;1.40;0.80;;;22.30;65.60;;;;;;5056977;28;20465;-94
2024/01/04 04:41:44;;;;;;;1.20;0.80;;;22.30;65.60;;;;;;5056276;28;20441;-89
2024/01/04 04:44:11;;;;;;;1.10;0.70;;;22.30;65.60;;;;;;5056091;28;20437;-90
2024/01/04 04:46:38;;;;;;;1.10;0.70;;;22.30;65.60;;;;;;5056202;28;20444;-90
2024/01/04 04:49:07;;;;;;;1.10;0.70;;;22.30;65.60;;;;;;5055525;28;20469;-90
2024/01/04 04:51:34;;;;;;;1.10;0.70;;;22.40;65.70;;;;;;5055510;28;20493;-89
2024/01/04 04:54:00;;;;;;;1.10;0.70;;;22.30;65.60;;;;;;5055908;28;20450;-89
2024/01/04 04:56:27;;;;;;;1.30;0.80;;;22.40;65.70;;;;;;5055716;28;20521;-91
2024/01/04 04:58:55;;;;;;;1.10;0.70;;;22.40;65.60;;;;;;5055762;28;20874;-89
2024/01/04 05:01:22;;;;;;;1.90;0.90;;;22.30;65.50;;;;;;5055622;28;20528;-89
2024/01/04 05:03:49;;;;;;;1.40;0.73;;;22.30;65.60;;;;;;5055528;28;20473;-90
2024/01/04 05:06:16;;;;;;;1.40;0.90;;;22.30;65.50;;;;;;5055466;28;20438;-90
2024/01/04 05:08:43;;;;;;;1.60;1.17;;;22.40;65.60;;;;;;5055194;28;20463;-89
2024/01/04 05:11:10;;;;;;;1.10;0.60;;;22.40;65.60;;;;;;5055075;28;20561;-89
2024/01/04 05:13:37;;;;;;;1.63;0.80;;;22.40;65.50;;;;;;5055316;28;20445;-90
2024/01/04 05:16:07;;;;;;;1.30;0.87;;;22.40;65.50;;;;;;5055321;28;20450;-89
2024/01/04 05:18:33;;;;;;;1.20;0.60;;;22.40;65.40;;;;;;5055247;28;20528;-91
2024/01/04 05:21:00;;;;;;;1.20;0.80;;;22.40;65.40;;;;;;5054514;28;20877;-94
2024/01/04 05:23:27;;;;;;;1.30;0.70;;;22.40;65.40;;;;;;5055314;28;20442;-90
2024/01/04 05:25:54;;;;;;;1.10;0.70;;;22.40;65.40;;;;;;5055285;28;20437;-89
2024/01/04 05:28:21;;;;;;;1.20;0.70;;;22.40;65.40;;;;;;5055028;28;20445;-89
2024/01/04 05:30:47;;;;;;;1.00;0.60;;;22.40;65.40;;;;;;5054972;28;20493;-89
2024/01/04 05:33:16;;;;;;;1.30;0.73;;;22.40;65.30;;;;;;5055286;28;20449;-96
2024/01/04 05:35:42;;;;;;;1.20;0.80;;;22.40;65.30;;;;;;5055144;28;20535;-95
2024/01/04 05:38:09;;;;;;;1.13;0.70;;;22.40;65.30;;;;;;5055486;28;20576;-90
2024/01/04 05:40:36;;;;;;;1.10;0.60;;;22.40;65.20;;;;;;5055748;28;20536;-92
2024/01/04 05:43:03;;;;;;;1.33;0.80;;;22.50;65.40;;;;;;5055978;28;20455;-91
2024/01/04 05:45:30;;;;;;;1.27;0.80;;;22.50;65.30;;;;;;5056885;28;20485;-89
2024/01/04 05:47:56;;;;;;;1.10;0.70;;;22.50;65.30;;;;;;5055783;28;20437;-90
2024/01/04 05:50:24;;;;;;;1.30;0.90;;;22.50;65.30;;;;;;5054267;28;20567;-90
2024/01/04 05:52:51;;;;;;;1.00;0.60;;;22.50;65.50;;;;;;5054405;28;20441;-91
2024/01/04 05:55:18;;;;;;;1.20;0.70;;;22.50;65.30;;;;;;5055396;28;20445;-89
2024/01/04 05:57:45;;;;;;;1.20;0.70;;;22.50;65.20;;;;;;5054844;28;20445;-87
2024/01/04 06:00:13;;;;;;;1.10;0.70;;;22.50;65.20;;;;;;5054669;28;20448;-90
2024/01/04 06:02:40;;;;;;;1.10;0.70;;;22.50;65.20;;;;;;5054614;28;20495;-88
2024/01/04 06:05:08;;;;;;;1.83;0.73;;;22.60;65.20;;;;;;5054874;28;20437;-88
2024/01/04 06:07:36;;;;;;;1.73;0.80;;;22.50;65.10;;;;;;5062949;28;20496;-86
2024/01/04 06:10:03;;;;;;;1.10;0.70;;;22.60;65.30;;;;;;5074652;28;20442;-89
2024/01/04 06:12:30;;;;;;;1.10;0.70;;;22.50;65.10;;;;;;5074058;28;20441;-88
2024/01/04 06:14:57;;;;;;;1.10;0.70;;;22.50;65.10;;;;;;5054001;28;20445;-89
2024/01/04 06:17:24;;;;;;;1.60;0.80;;;22.50;65.20;;;;;;5054499;28;20803;-94
2024/01/04 06:19:51;;;;;;;1.10;0.70;;;22.50;65.10;;;;;;5054358;28;20536;-92
2024/01/04 06:22:17;;;;;;;1.17;0.67;;;22.50;65.10;;;;;;5054482;28;20790;-88
2024/01/04 06:24:46;;;;;;;1.10;0.70;;;22.50;65.10;;;;;;5054017;28;20545;-88
2024/01/04 06:27:13;;;;;;;1.10;0.70;;;22.60;65.20;;;;;;5053901;28;20448;-89
2024/01/04 06:29:40;;;;;;;1.20;0.70;;;22.50;65.10;;;;;;5053572;28;20539;-88
2024/01/04 06:32:08;;;;;;;1.20;0.70;;;22.50;65.10;;;;;;5053559;28;20489;-88
2024/01/04 06:34:34;;;;;;;1.00;0.60;;;22.50;65.10;;;;;;5054035;28;20500;-88
2024/01/04 06:37:01;;;;;;;1.10;0.70;;;22.50;65.10;;;;;;5054411;28;20987;-88
2024/01/04 06:39:28;;;;;;;1.10;0.70;;;22.50;65.10;;;;;;5054026;28;20463;-88
2024/01/04 06:41:57;;;;;;;1.10;0.70;;;22.50;65.00;;;;;;5053650;28;20496;-88
2024/01/04 06:44:23;;;;;;;1.20;0.70;;;22.50;65.50;;;;;;5053393;28;21036;-92
2024/01/04 06:46:50;;;;;;;1.10;0.70;;;22.50;65.10;;;;;;5061085;28;20453;-88
2024/01/04 06:49:17;;;;;;;1.60;0.73;;;22.50;64.80;;;;;;5074618;28;20480;-89
2024/01/04 06:51:44;;;;;;;1.10;0.60;;;22.60;65.00;;;;;;5074392;28;20587;-91
2024/01/04 06:54:10;;;;;;;1.40;0.80;;;22.50;65.00;;;;;;5074128;28;20780;-88
2024/01/04 06:56:37;;;;;;;1.10;0.70;;;22.50;64.80;;;;;;5065845;28;20449;-93
2024/01/04 06:59:05;;;;;;;1.27;0.60;;;22.50;65.00;;;;;;5056392;28;20465;-91
2024/01/04 07:01:32;;;;;;;2.90;0.90;;;22.50;64.90;;;;;;5056106;28;20449;-88
2024/01/04 07:03:59;;;;;;;1.10;0.70;;;22.50;64.90;;;;;;5056184;28;20540;-88
2024/01/04 07:06:26;;;;;;;3.13;0.77;;;22.60;65.20;;;;;;5056133;28;20442;-89
2024/01/04 07:08:53;;;;;;;1.37;0.70;;;22.50;65.10;;;;;;5055130;28;21333;-87
2024/01/04 07:11:19;;;;;;;1.40;1.00;;;22.50;65.10;;;;;;5054778;28;20579;-90
2024/01/04 07:13:46;;;;;;;1.13;0.63;;;22.50;65.10;;;;;;5055426;28;20440;-89
2024/01/04 07:16:14;;;;;;;1.10;0.80;;;22.50;65.10;;;;;;5061894;28;20778;-90
2024/01/04 07:18:41;;;;;;;3.47;0.80;;;22.50;65.20;;;;;;5074206;28;20468;-88
2024/01/04 07:21:09;;;;;;;1.00;0.60;;;22.50;65.40;;;;;;5073544;28;20444;-90
2024/01/04 07:23:36;;;;;;;1.10;0.60;;;22.50;65.40;;;;;;5073709;28;20440;-91
2024/01/04 07:26:03;;;;;;;1.17;0.73;;;22.60;65.60;;;;;;5073613;28;20440;-89
2024/01/04 07:28:30;;;;;;;1.57;0.70;;;22.50;65.50;;;;;;5074000;28;20444;-92
2024/01/04 07:30:57;;;;;;;1.87;0.80;;;22.50;65.50;;;;;;5073699;28;20682;-89
2024/01/04 07:33:26;;;;;;;1.10;0.60;;;22.50;65.50;;;;;;5073566;28;20467;-88
2024/01/04 07:35:53;;;;;;;1.27;0.80;;;22.50;65.50;;;;;;5073522;28;20445;-93
2024/01/04 07:38:20;;;;;;;1.77;0.70;;;22.50;65.50;;;;;;5073451;28;20496;-88
2024/01/04 07:40:47;;;;;;;2.33;0.80;;;22.50;65.50;;;;;;5073075;28;20943;-89
2024/01/04 07:43:14;;;;;;;1.13;0.70;;;22.50;65.50;;;;;;5073257;28;20444;-91
2024/01/04 07:45:41;;;;;;;2.70;0.83;;;22.50;65.60;;;;;;5075391;28;20524;-92
2024/01/04 07:48:11;;;;;;;1.10;0.60;;;22.50;65.50;;;;;;5076419;28;20946;-88
2024/01/04 07:50:39;;;;;;;2.07;0.80;;;22.50;65.40;;;;;;5072060;28;20521;-90
2024/01/04 07:53:06;;;;;;;1.40;0.67;;;22.50;65.40;;;;;;5076394;28;20444;-89
2024/01/04 07:55:33;;;;;;;1.33;0.90;;;22.50;65.40;;;;;;5076314;28;20535;-88
2024/01/04 07:58:00;;;;;;;1.40;1.30;;;22.50;66.20;;;;;;5076269;28;20926;-92
2024/01/04 08:00:26;;;;;;;1.10;0.80;;;22.50;65.40;;;;;;5076837;28;20539;-91
2024/01/04 08:02:53;;;;;;;1.10;0.77;;;22.50;65.30;;;;;;5076782;28;20535;-84
2024/01/04 08:05:20;;;;;;;1.50;1.30;;;22.50;65.40;;;;;;5056798;28;20544;-85
2024/01/04 08:07:48;;;;;;;4.10;1.47;;;22.40;63.70;;;;;;5066569;28;20472;-88
2024/01/04 08:10:15;;;;;;;1.60;1.07;;;22.30;63.80;;;;;;5075522;28;20531;-87
2024/01/04 08:12:45;;;;;;;1.60;0.93;;;22.30;64.30;;;;;;5072499;28;20850;-85
2024/01/04 08:15:12;;;;;;;4.20;0.93;;;22.30;64.70;;;;;;5058748;28;20437;-85
2024/01/04 08:17:39;;;;;;;1.30;0.90;;;22.30;64.40;;;;;;5054823;28;20442;-80
2024/01/04 08:20:06;;;;;;;2.13;0.73;;;22.40;65.60;;;;;;5055312;28;20434;-86
2024/01/04 08:22:33;;;;;;;1.27;0.73;;;22.40;65.20;;;;;;5055617;28;20950;-84
2024/01/04 08:25:01;;;;;;;1.93;0.97;;;22.50;65.30;;;;;;5055121;28;20437;-81
2024/01/04 08:27:28;;;;;;;2.23;0.90;;;22.50;65.20;;;;;;5054036;28;20437;-79
2024/01/04 08:29:55;;;;;;;1.57;0.90;;;22.50;65.20;;;;;;5054008;28;20449;-80
2024/01/04 08:32:22;;;;;;;1.43;0.90;;;22.50;65.30;;;;;;5053967;28;20583;-80
2024/01/04 08:34:48;;;;;;;1.57;0.90;;;22.50;65.30;;;;;;5054350;28;20441;-80
2024/01/04 08:37:18;;;;;;;2.03;0.93;;;22.50;65.20;;;;;;5053948;28;20437;-81
2024/01/04 08:39:45;;;;;;;1.10;0.70;;;22.60;65.30;;;;;;5053901;28;20441;-79
2024/01/04 08:42:13;;;;;;;2.23;1.17;;;22.60;65.50;;;;;;5054015;28;20437;-82
2024/01/04 08:44:41;;;;;;;3.23;1.00;;;22.60;65.40;;;;;;5054295;28;20437;-84
2024/01/04 08:47:07;;;;;;;1.40;0.80;;;22.60;65.50;;;;;;5054601;28;20796;-83
2024/01/04 08:49:34;;;;;;;1.70;0.90;;;22.60;65.60;;;;;;5054356;28;20469;-84
2024/01/04 08:52:01;;;;;;;1.50;1.00;;;22.50;65.50;;;;;;5054922;28;20491;-80
2024/01/04 08:54:28;;;;;;;1.67;1.03;;;22.60;65.70;;;;;;5059835;28;20448;-79
2024/01/04 08:56:55;;;;;;;5.80;1.07;;;22.50;65.80;;;;;;5072618;28;20476;-80
2024/01/04 08:59:24;;;;;;;1.50;0.83;;;22.50;65.70;;;;;;5067397;28;20456;-80
2024/01/04 09:01:50;;;;;;;1.40;0.87;;;22.60;65.90;;;;;;5072835;28;20816;-83
2024/01/04 09:04:19;;;;;;;1.53;0.90;;;22.60;66.00;;;;;;5074077;28;20452;-83
2024/01/04 09:06:45;;;;;;;1.60;1.10;;;22.60;65.90;;;;;;5066631;28;20453;-83
2024/01/04 09:09:13;;;;;;;1.67;1.30;;;22.60;65.70;;;;;;5055335;28;20554;-83
2024/01/04 09:11:41;;;;;;;2.33;1.20;;;22.60;65.90;;;;;;5068021;28;20502;-83
2024/01/04 09:14:11;;;;;;;2.33;1.00;;;22.60;66.30;;;;;;5074438;28;20448;-85
2024/01/04 09:16:40;;;;;;;1.70;0.97;;;22.60;65.90;;;;;;5073441;28;20453;-83
2024/01/04 09:19:07;;;;;;;1.50;1.00;;;22.60;66.10;;;;;;5069404;28;20815;-86
2024/01/04 09:21:34;;;;;;;2.87;1.10;;;22.60;65.70;;;;;;5061464;28;20538;-84
2024/01/04 09:24:02;;;;;;;2.17;1.30;;;22.60;65.80;;;;;;5074046;28;20448;-90
2024/01/04 09:26:29;;;;;;;1.70;1.10;;;22.60;66.10;;;;;;5090919;28;20466;-88
2024/01/04 09:28:55;;;;;;;1.63;1.10;;;22.50;65.80;;;;;;5097973;28;20464;-91
2024/01/04 09:31:23;;;;;;;1.20;0.90;;;22.60;65.90;;;;;;5087110;28;20471;-95
2024/01/04 09:33:54;;;;;;;1.67;1.03;;;22.60;66.00;;;;;;5079290;28;20448;-95
2024/01/04 12:35:16;;;;;;;3.00;1.37;;;22.70;67.50;;;;;;4961708;28;20537;-81
2024/01/04 12:37:43;;;;;;;1.93;0.90;;;22.70;67.10;;;;;;5024510;28;21012;-89
2024/01/04 12:40:13;;;;;;;4.17;1.40;;;22.70;65.30;;;;;;5027712;28;20798;-89
2024/01/04 15:26:40;;;;;;;2.47;1.43;;;22.50;64.60;;;;;;5040719;28;20586;-85
2024/01/04 15:29:08;;;;;;;5.97;1.80;;;22.60;64.70;;;;;;5036949;28;20438;-88
2024/01/04 15:32:00;;;;;;;5.83;1.13;;;22.70;64.80;;;;;;5040784;28;20474;-94
2024/01/04 15:34:27;;;;;;;2.47;1.60;;;22.70;64.20;;;;;;5042877;28;20777;-94
2024/01/04 15:36:54;;;;;;;2.80;1.20;;;22.80;64.50;;;;;;5038038;28;20438;-88
2024/01/04 15:39:21;;;;;;;3.40;1.30;;;22.80;64.40;;;;;;5037227;28;20529;-90
2024/01/04 15:41:53;;;;;;;4.43;1.43;;;22.70;63.40;;;;;;5057944;28;20444;-89
2024/01/04 15:44:20;;;;;;;1.40;1.30;;;22.70;63.20;;;;;;5056623;28;20852;-89
2024/01/04 15:46:47;;;;;;;2.13;1.20;;;22.70;63.60;;;;;;5038640;28;20815;-89
2024/01/04 15:49:14;;;;;;;4.07;1.50;;;22.70;63.50;;;;;;5054570;28;20421;-96
2024/01/04 15:54:48;;;;;;;4.37;1.50;;;22.50;63.50;;;;;;5119396;23;20492;-91
2024/01/04 17:00:23;;;;;;;2.47;1.47;;;22.90;64.60;;;;;;6258150;22;20466;-92
2024/01/04 17:02:51;;;;;;;3.83;1.30;;;22.90;64.40;;;;;;6256053;23;20436;-90
2024/01/04 17:05:18;;;;;;;2.13;1.30;;;22.90;65.30;;;;;;6258005;23;20393;-92
2024/01/04 17:07:45;;;;;;;5.03;1.47;;;22.90;63.60;;;;;;6256779;23;20523;-93
2024/01/04 17:10:12;;;;;;;2.97;1.33;;;22.90;64.20;;;;;;6256347;23;20435;-92
2024/01/04 17:12:40;;;;;;;1.70;1.37;;;22.90;64.70;;;;;;6257165;23;20496;-92
2024/01/04 17:15:08;;;;;;;1.83;1.20;;;22.90;65.00;;;;;;6257367;23;20492;-92
2024/01/04 17:21:38;;;;;;;;;;;;;;;;;;;;;
2024/01/04 17:24:06;;;;;;;1.40;1.10;;;22.90;65.00;;;;;;6169784;23;20411;-93
2024/01/04 17:26:33;;;;;;;3.10;1.47;;;22.90;64.90;;;;;;6227171;23;20465;-93
2024/01/04 17:29:00;;;;;;;1.80;1.17;;;22.90;65.00;;;;;;6220616;23;20405;-92
2024/01/04 17:31:28;;;;;;;2.50;1.20;;;22.90;65.00;;;;;;6219391;23;20409;-93
2024/01/04 17:33:55;;;;;;;2.83;1.33;;;22.90;65.10;;;;;;6219171;23;20783;-86
2024/01/04 17:36:23;;;;;;;1.57;1.30;;;22.90;64.90;;;;;;6217373;23;20492;-87
2024/01/04 17:38:50;;;;;;;3.20;1.60;;;22.90;64.20;;;;;;6217777;23;20408;-88
2024/01/04 17:41:29;;;;;;;6.70;1.80;;;22.80;64.00;;;;;;6223046;23;20422;-93
2024/01/04 17:43:57;;;;;;;1.70;1.20;;;22.80;64.50;;;;;;6221087;23;20396;-88
2024/01/04 17:46:24;;;;;;;3.20;1.40;;;22.90;64.70;;;;;;6217638;23;20492;-93
2024/01/04 17:49:17;;;;;;;2.40;1.40;;;22.90;64.30;;;;;;6226208;23;20418;-95
2024/01/04 17:51:45;;;;;;;3.17;2.07;;;22.80;64.30;;;;;;6216406;22;20449;-93
2024/01/04 17:57:01;;;;;;;2.47;1.47;;;22.80;63.00;;;;;;6239648;22;20942;-89
2024/01/04 17:59:28;;;;;;;4.03;1.50;;;22.80;63.80;;;;;;6248922;23;20464;-86
2024/01/04 18:01:58;;;;;;;2.57;1.70;;;22.70;63.10;;;;;;6247428;23;20397;-94
2024/01/04 18:04:25;;;;;;;2.77;1.50;;;22.60;63.00;;;;;;6250307;23;20405;-93
2024/01/04 18:07:03;;;;;;;5.60;1.63;;;22.60;62.90;;;;;;6255465;23;20445;-96
2024/01/04 18:23:17;;;;;;;2.23;1.30;;;22.80;64.50;;;;;;6247040;23;20732;-95
2024/01/04 18:42:58;;;;;;;1.90;1.40;;;22.90;64.60;;;;;;6242275;22;20444;-94
2024/01/04 18:45:36;;;;;;;1.80;1.50;;;23.00;64.60;;;;;;6251976;22;20409;-92
2024/01/04 18:54:41;;;;;;;2.70;1.90;;;23.00;64.70;;;;;;6242266;22;20435;-94
2024/01/04 18:59:49;;;;;;;1.87;1.30;;;23.00;64.50;;;;;;6212343;22;20441;-94
2024/01/04 19:28:23;;;;;;;4.53;1.93;;;23.10;64.30;;;;;;6244884;22;20962;-94
2024/01/04 20:06:24;;;;;;;;;;;;;;;;;;;;;
2024/01/04 20:08:54;;;;;;;3.53;2.03;;;23.10;64.40;;;;;;6211211;23;20476;-93
2024/01/04 20:11:27;;;;;;;3.87;1.40;;;23.20;64.40;;;;;;6220006;23;20873;-95
2024/01/04 20:13:54;;;;;;;21.83;1.67;;;23.30;64.40;;;;;;6219394;22;20390;-93
2024/01/04 20:34:13;;;;;;;1.67;1.47;;;23.20;64.40;;;;;;6278792;22;20763;-96
2024/01/04 20:36:41;;;;;;;1.93;1.73;;;23.20;64.50;;;;;;6282877;22;20450;-95
2024/01/04 20:46:06;;;;;;;1.73;1.53;;;23.20;64.80;;;;;;6278263;22;20438;-91
2024/01/04 21:44:57;;;;;;;1.90;1.20;;;23.10;64.30;;;;;;6246913;22;20432;-96
